sensor_id;sensor_type;location;lat;lon;timestamp;P1;durP1;ratioP1;P2;durP2;ratioP2
27113;SDS011;14648;49.730;8.614;2022-07-03T00:01:35;5.27;;;3.20;;
27113;SDS011;14648;49.730;8.614;2022-07-03T00:04:02;4.70;;;3.20;;
27113;SDS011;14648;49.730;8.614;2022-07-03T00:06:28;5.60;;;3.50;;
27113;SDS011;14648;49.730;8.614;2022-07-03T00:08:56;4.23;;;3.73;;
27113;SDS011;14648;49.730;8.614;2022-07-03T00:11:23;4.10;;;2.73;;
27113;SDS011;14648;49.730;8.614;2022-07-03T00:13:48;4.70;;;2.97;;
27113;SDS011;14648;49.730;8.614;2022-07-03T00:16:14;4.27;;;2.53;;
27113;SDS011;14648;49.730;8.614;2022-07-03T00:18:40;3.80;;;2.73;;
27113;SDS011;14648;49.730;8.614;2022-07-03T00:21:08;3.67;;;2.63;;
27113;SDS011;14648;49.730;8.614;2022-07-03T00:26:29;3.80;;;3.50;;
27113;SDS011;14648;49.730;8.614;2022-07-03T00:28:59;2.90;;;2.70;;
27113;SDS011;14648;49.730;8.614;2022-07-03T00:31:30;4.50;;;2.63;;
27113;SDS011;14648;49.730;8.614;2022-07-03T00:33:58;3.87;;;3.07;;
27113;SDS011;14648;49.730;8.614;2022-07-03T00:36:29;2.40;;;2.20;;
27113;SDS011;14648;49.730;8.614;2022-07-03T00:39:00;2.70;;;2.50;;
27113;SDS011;14648;49.730;8.614;2022-07-03T00:41:27;3.40;;;1.73;;
27113;SDS011;14648;49.730;8.614;2022-07-03T00:43:58;2.83;;;2.00;;
27113;SDS011;14648;49.730;8.614;2022-07-03T00:46:25;3.10;;;2.00;;
27113;SDS011;14648;49.730;8.614;2022-07-03T00:48:53;2.33;;;2.10;;
27113;SDS011;14648;49.730;8.614;2022-07-03T00:51:22;2.67;;;2.47;;
27113;SDS011;14648;49.730;8.614;2022-07-03T00:53:52;3.43;;;2.40;;
27113;SDS011;14648;49.730;8.614;2022-07-03T00:56:30;2.23;;;2.13;;
27113;SDS011;14648;49.730;8.614;2022-07-03T00:59:00;1.97;;;1.87;;
27113;SDS011;14648;49.730;8.614;2022-07-03T01:01:30;2.07;;;1.97;;
27113;SDS011;14648;49.730;8.614;2022-07-03T01:07:41;5.57;;;2.67;;
27113;SDS011;14648;49.730;8.614;2022-07-03T01:10:43;2.57;;;1.83;;
27113;SDS011;14648;49.730;8.614;2022-07-03T01:13:48;3.47;;;2.20;;
27113;SDS011;14648;49.730;8.614;2022-07-03T01:16:44;2.50;;;2.00;;
27113;SDS011;14648;49.730;8.614;2022-07-03T01:19:51;2.67;;;2.40;;
27113;SDS011;14648;49.730;8.614;2022-07-03T01:22:34;2.00;;;1.90;;
27113;SDS011;14648;49.730;8.614;2022-07-03T01:25:14;5.33;;;2.03;;
27113;SDS011;14648;49.730;8.614;2022-07-03T01:27:50;2.70;;;1.80;;
27113;SDS011;14648;49.730;8.614;2022-07-03T01:31:07;1.73;;;1.63;;
27113;SDS011;14648;49.730;8.614;2022-07-03T01:33:27;2.20;;;2.00;;
27113;SDS011;14648;49.730;8.614;2022-07-03T01:35:58;2.70;;;2.27;;
27113;SDS011;14648;49.730;8.614;2022-07-03T01:38:35;2.20;;;2.10;;
27113;SDS011;14648;49.730;8.614;2022-07-03T01:41:06;2.40;;;2.20;;
27113;SDS011;14648;49.730;8.614;2022-07-03T01:43:34;2.00;;;1.90;;
27113;SDS011;14648;49.730;8.614;2022-07-03T01:46:04;1.80;;;1.70;;
27113;SDS011;14648;49.730;8.614;2022-07-03T01:48:31;3.20;;;1.60;;
27113;SDS011;14648;49.730;8.614;2022-07-03T01:50:58;2.50;;;1.60;;
27113;SDS011;14648;49.730;8.614;2022-07-03T01:53:26;2.50;;;1.70;;
27113;SDS011;14648;49.730;8.614;2022-07-03T01:55:58;2.20;;;1.83;;
27113;SDS011;14648;49.730;8.614;2022-07-03T01:58:25;2.00;;;1.47;;
27113;SDS011;14648;49.730;8.614;2022-07-03T02:03:49;1.70;;;1.60;;
27113;SDS011;14648;49.730;8.614;2022-07-03T02:06:40;2.30;;;1.77;;
27113;SDS011;14648;49.730;8.614;2022-07-03T02:09:23;1.80;;;1.70;;
27113;SDS011;14648;49.730;8.614;2022-07-03T02:11:59;2.50;;;1.90;;
27113;SDS011;14648;49.730;8.614;2022-07-03T02:14:31;2.60;;;1.60;;
27113;SDS011;14648;49.730;8.614;2022-07-03T02:17:03;2.40;;;2.10;;
27113;SDS011;14648;49.730;8.614;2022-07-03T02:22:27;3.67;;;1.93;;
27113;SDS011;14648;49.730;8.614;2022-07-03T02:24:59;2.63;;;1.60;;
27113;SDS011;14648;49.730;8.614;2022-07-03T02:27:42;2.03;;;1.60;;
27113;SDS011;14648;49.730;8.614;2022-07-03T02:30:22;2.63;;;1.30;;
27113;SDS011;14648;49.730;8.614;2022-07-03T02:32:50;1.40;;;1.30;;
27113;SDS011;14648;49.730;8.614;2022-07-03T02:35:18;1.87;;;1.50;;
27113;SDS011;14648;49.730;8.614;2022-07-03T02:37:53;1.30;;;1.20;;
27113;SDS011;14648;49.730;8.614;2022-07-03T02:43:47;5.23;;;1.33;;
27113;SDS011;14648;49.730;8.614;2022-07-03T02:52:33;5.73;;;1.70;;
27113;SDS011;14648;49.730;8.614;2022-07-03T02:58:27;7.20;;;1.93;;
27113;SDS011;14648;49.730;8.614;2022-07-03T03:04:09;1.60;;;1.37;;
27113;SDS011;14648;49.730;8.614;2022-07-03T03:06:54;1.93;;;1.73;;
27113;SDS011;14648;49.730;8.614;2022-07-03T03:09:24;5.37;;;1.80;;
27113;SDS011;14648;49.730;8.614;2022-07-03T03:11:56;1.57;;;1.47;;
27113;SDS011;14648;49.730;8.614;2022-07-03T03:14:34;2.20;;;1.57;;
27113;SDS011;14648;49.730;8.614;2022-07-03T03:17:08;1.63;;;1.53;;
27113;SDS011;14648;49.730;8.614;2022-07-03T03:19:40;2.60;;;1.60;;
27113;SDS011;14648;49.730;8.614;2022-07-03T03:22:16;1.53;;;1.43;;
27113;SDS011;14648;49.730;8.614;2022-07-03T03:25:09;6.00;;;2.40;;
27113;SDS011;14648;49.730;8.614;2022-07-03T03:27:35;2.27;;;1.93;;
27113;SDS011;14648;49.730;8.614;2022-07-03T03:30:01;4.30;;;1.40;;
27113;SDS011;14648;49.730;8.614;2022-07-03T03:32:27;2.30;;;2.17;;
27113;SDS011;14648;49.730;8.614;2022-07-03T03:34:54;11.53;;;1.97;;
27113;SDS011;14648;49.730;8.614;2022-07-03T03:37:20;2.90;;;1.53;;
27113;SDS011;14648;49.730;8.614;2022-07-03T03:39:45;2.87;;;1.70;;
27113;SDS011;14648;49.730;8.614;2022-07-03T03:42:12;3.53;;;2.13;;
27113;SDS011;14648;49.730;8.614;2022-07-03T03:44:38;2.57;;;1.80;;
27113;SDS011;14648;49.730;8.614;2022-07-03T03:47:03;2.03;;;1.93;;
27113;SDS011;14648;49.730;8.614;2022-07-03T03:49:29;6.60;;;2.30;;
27113;SDS011;14648;49.730;8.614;2022-07-03T03:51:56;2.60;;;2.00;;
27113;SDS011;14648;49.730;8.614;2022-07-03T03:54:22;1.80;;;1.70;;
27113;SDS011;14648;49.730;8.614;2022-07-03T03:56:47;2.03;;;1.93;;
27113;SDS011;14648;49.730;8.614;2022-07-03T03:59:13;2.00;;;1.90;;
27113;SDS011;14648;49.730;8.614;2022-07-03T04:01:39;2.43;;;1.67;;
27113;SDS011;14648;49.730;8.614;2022-07-03T04:04:04;3.80;;;1.80;;
27113;SDS011;14648;49.730;8.614;2022-07-03T04:06:30;1.77;;;1.67;;
27113;SDS011;14648;49.730;8.614;2022-07-03T04:08:56;2.10;;;1.70;;
27113;SDS011;14648;49.730;8.614;2022-07-03T04:11:21;1.90;;;1.80;;
27113;SDS011;14648;49.730;8.614;2022-07-03T04:13:47;2.13;;;1.97;;
27113;SDS011;14648;49.730;8.614;2022-07-03T04:16:13;2.17;;;1.87;;
27113;SDS011;14648;49.730;8.614;2022-07-03T04:18:38;2.17;;;2.07;;
27113;SDS011;14648;49.730;8.614;2022-07-03T04:21:04;1.70;;;1.60;;
27113;SDS011;14648;49.730;8.614;2022-07-03T04:23:30;2.97;;;1.60;;
27113;SDS011;14648;49.730;8.614;2022-07-03T04:26:02;1.67;;;1.57;;
27113;SDS011;14648;49.730;8.614;2022-07-03T04:28:29;2.10;;;2.00;;
27113;SDS011;14648;49.730;8.614;2022-07-03T04:30:55;3.70;;;2.00;;
27113;SDS011;14648;49.730;8.614;2022-07-03T04:33:20;4.67;;;2.10;;
27113;SDS011;14648;49.730;8.614;2022-07-03T04:35:46;2.00;;;1.47;;
27113;SDS011;14648;49.730;8.614;2022-07-03T04:38:12;2.10;;;2.00;;
27113;SDS011;14648;49.730;8.614;2022-07-03T04:40:37;1.77;;;1.67;;
27113;SDS011;14648;49.730;8.614;2022-07-03T04:43:03;3.40;;;2.50;;
27113;SDS011;14648;49.730;8.614;2022-07-03T04:45:29;4.73;;;1.53;;
27113;SDS011;14648;49.730;8.614;2022-07-03T04:47:54;1.50;;;1.40;;
27113;SDS011;14648;49.730;8.614;2022-07-03T04:50:20;5.07;;;1.57;;
27113;SDS011;14648;49.730;8.614;2022-07-03T04:52:46;1.57;;;1.47;;
27113;SDS011;14648;49.730;8.614;2022-07-03T04:55:11;1.40;;;1.30;;
27113;SDS011;14648;49.730;8.614;2022-07-03T04:57:37;1.70;;;1.60;;
27113;SDS011;14648;49.730;8.614;2022-07-03T05:00:03;1.47;;;1.37;;
27113;SDS011;14648;49.730;8.614;2022-07-03T05:02:30;1.33;;;1.23;;
27113;SDS011;14648;49.730;8.614;2022-07-03T05:04:56;2.20;;;1.60;;
27113;SDS011;14648;49.730;8.614;2022-07-03T05:07:22;1.50;;;1.40;;
27113;SDS011;14648;49.730;8.614;2022-07-03T05:09:47;1.73;;;1.63;;
27113;SDS011;14648;49.730;8.614;2022-07-03T05:12:13;1.60;;;1.50;;
27113;SDS011;14648;49.730;8.614;2022-07-03T05:14:38;2.50;;;1.60;;
27113;SDS011;14648;49.730;8.614;2022-07-03T05:17:04;8.40;;;1.83;;
27113;SDS011;14648;49.730;8.614;2022-07-03T05:19:30;1.10;;;1.10;;
27113;SDS011;14648;49.730;8.614;2022-07-03T05:21:55;3.17;;;1.83;;
27113;SDS011;14648;49.730;8.614;2022-07-03T05:24:21;1.27;;;1.20;;
27113;SDS011;14648;49.730;8.614;2022-07-03T05:26:48;1.70;;;1.60;;
27113;SDS011;14648;49.730;8.614;2022-07-03T05:29:15;1.20;;;1.10;;
27113;SDS011;14648;49.730;8.614;2022-07-03T05:31:41;2.03;;;1.83;;
27113;SDS011;14648;49.730;8.614;2022-07-03T05:34:06;1.30;;;1.20;;
27113;SDS011;14648;49.730;8.614;2022-07-03T05:36:33;1.70;;;1.60;;
27113;SDS011;14648;49.730;8.614;2022-07-03T05:38:59;1.60;;;1.50;;
27113;SDS011;14648;49.730;8.614;2022-07-03T05:41:43;2.00;;;1.90;;
27113;SDS011;14648;49.730;8.614;2022-07-03T05:44:10;5.60;;;1.30;;
27113;SDS011;14648;49.730;8.614;2022-07-03T05:46:36;1.40;;;1.30;;
27113;SDS011;14648;49.730;8.614;2022-07-03T05:49:02;5.50;;;1.30;;
27113;SDS011;14648;49.730;8.614;2022-07-03T05:51:27;2.70;;;1.40;;
27113;SDS011;14648;49.730;8.614;2022-07-03T05:53:53;2.70;;;1.60;;
27113;SDS011;14648;49.730;8.614;2022-07-03T05:56:19;2.60;;;1.50;;
27113;SDS011;14648;49.730;8.614;2022-07-03T05:58:44;1.60;;;1.50;;
27113;SDS011;14648;49.730;8.614;2022-07-03T06:01:10;1.60;;;1.50;;
27113;SDS011;14648;49.730;8.614;2022-07-03T06:03:36;1.50;;;1.40;;
27113;SDS011;14648;49.730;8.614;2022-07-03T06:06:01;2.57;;;1.93;;
27113;SDS011;14648;49.730;8.614;2022-07-03T06:08:27;1.70;;;1.60;;
27113;SDS011;14648;49.730;8.614;2022-07-03T06:10:53;1.67;;;1.50;;
27113;SDS011;14648;49.730;8.614;2022-07-03T06:13:19;1.50;;;1.40;;
27113;SDS011;14648;49.730;8.614;2022-07-03T06:15:45;1.50;;;1.40;;
27113;SDS011;14648;49.730;8.614;2022-07-03T06:18:12;6.93;;;1.57;;
27113;SDS011;14648;49.730;8.614;2022-07-03T06:20:38;2.70;;;1.77;;
27113;SDS011;14648;49.730;8.614;2022-07-03T06:23:04;1.70;;;1.60;;
27113;SDS011;14648;49.730;8.614;2022-07-03T06:25:29;1.67;;;1.20;;
27113;SDS011;14648;49.730;8.614;2022-07-03T06:27:55;1.70;;;1.60;;
27113;SDS011;14648;49.730;8.614;2022-07-03T06:30:21;2.13;;;1.93;;
27113;SDS011;14648;49.730;8.614;2022-07-03T06:32:46;1.67;;;1.57;;
27113;SDS011;14648;49.730;8.614;2022-07-03T06:35:12;2.03;;;1.70;;
27113;SDS011;14648;49.730;8.614;2022-07-03T06:37:38;1.80;;;1.70;;
27113;SDS011;14648;49.730;8.614;2022-07-03T06:40:04;2.00;;;1.67;;
27113;SDS011;14648;49.730;8.614;2022-07-03T06:42:31;8.83;;;2.30;;
27113;SDS011;14648;49.730;8.614;2022-07-03T06:44:57;6.03;;;1.90;;
27113;SDS011;14648;49.730;8.614;2022-07-03T06:47:23;2.63;;;1.80;;
27113;SDS011;14648;49.730;8.614;2022-07-03T06:49:48;10.40;;;1.90;;
27113;SDS011;14648;49.730;8.614;2022-07-03T06:52:14;1.97;;;1.87;;
27113;SDS011;14648;49.730;8.614;2022-07-03T06:54:39;2.17;;;1.87;;
27113;SDS011;14648;49.730;8.614;2022-07-03T06:57:08;4.33;;;2.07;;
27113;SDS011;14648;49.730;8.614;2022-07-03T06:59:36;3.03;;;1.60;;
27113;SDS011;14648;49.730;8.614;2022-07-03T07:02:01;1.70;;;1.60;;
27113;SDS011;14648;49.730;8.614;2022-07-03T07:04:27;4.00;;;1.97;;
27113;SDS011;14648;49.730;8.614;2022-07-03T07:06:53;2.03;;;1.93;;
27113;SDS011;14648;49.730;8.614;2022-07-03T07:09:18;6.33;;;1.87;;
27113;SDS011;14648;49.730;8.614;2022-07-03T07:11:44;3.13;;;1.47;;
27113;SDS011;14648;49.730;8.614;2022-07-03T07:14:10;2.50;;;2.30;;
27113;SDS011;14648;49.730;8.614;2022-07-03T07:16:35;3.83;;;1.53;;
27113;SDS011;14648;49.730;8.614;2022-07-03T07:19:01;3.50;;;1.80;;
27113;SDS011;14648;49.730;8.614;2022-07-03T07:21:27;1.67;;;1.57;;
27113;SDS011;14648;49.730;8.614;2022-07-03T07:23:53;2.90;;;1.30;;
27113;SDS011;14648;49.730;8.614;2022-07-03T07:26:18;2.47;;;2.17;;
27113;SDS011;14648;49.730;8.614;2022-07-03T07:28:45;1.57;;;1.47;;
27113;SDS011;14648;49.730;8.614;2022-07-03T07:31:11;4.73;;;1.43;;
27113;SDS011;14648;49.730;8.614;2022-07-03T07:33:37;2.07;;;1.43;;
27113;SDS011;14648;49.730;8.614;2022-07-03T07:36:03;2.20;;;1.57;;
27113;SDS011;14648;49.730;8.614;2022-07-03T07:38:29;6.97;;;1.57;;
27113;SDS011;14648;49.730;8.614;2022-07-03T07:40:55;2.47;;;1.40;;
27113;SDS011;14648;49.730;8.614;2022-07-03T07:43:20;1.83;;;1.73;;
27113;SDS011;14648;49.730;8.614;2022-07-03T07:45:46;3.33;;;1.70;;
27113;SDS011;14648;49.730;8.614;2022-07-03T07:48:12;2.80;;;2.17;;
27113;SDS011;14648;49.730;8.614;2022-07-03T07:50:37;1.57;;;1.47;;
27113;SDS011;14648;49.730;8.614;2022-07-03T07:53:03;1.80;;;1.70;;
27113;SDS011;14648;49.730;8.614;2022-07-03T07:55:29;6.03;;;1.83;;
27113;SDS011;14648;49.730;8.614;2022-07-03T07:57:54;1.83;;;1.70;;
27113;SDS011;14648;49.730;8.614;2022-07-03T08:00:20;1.50;;;1.40;;
27113;SDS011;14648;49.730;8.614;2022-07-03T08:02:47;2.27;;;2.00;;
27113;SDS011;14648;49.730;8.614;2022-07-03T08:05:32;2.10;;;1.97;;
27113;SDS011;14648;49.730;8.614;2022-07-03T08:08:19;1.63;;;1.53;;
27113;SDS011;14648;49.730;8.614;2022-07-03T08:10:46;2.40;;;1.60;;
27113;SDS011;14648;49.730;8.614;2022-07-03T08:13:14;2.00;;;1.77;;
27113;SDS011;14648;49.730;8.614;2022-07-03T08:15:44;2.00;;;1.90;;
27113;SDS011;14648;49.730;8.614;2022-07-03T08:18:12;1.70;;;1.60;;
27113;SDS011;14648;49.730;8.614;2022-07-03T08:20:38;4.87;;;1.83;;
27113;SDS011;14648;49.730;8.614;2022-07-03T08:23:04;2.93;;;1.47;;
27113;SDS011;14648;49.730;8.614;2022-07-03T08:25:31;2.13;;;1.83;;
27113;SDS011;14648;49.730;8.614;2022-07-03T08:27:58;1.80;;;1.70;;
27113;SDS011;14648;49.730;8.614;2022-07-03T08:30:25;4.13;;;1.80;;
27113;SDS011;14648;49.730;8.614;2022-07-03T08:32:52;1.73;;;1.63;;
27113;SDS011;14648;49.730;8.614;2022-07-03T08:35:21;1.47;;;1.43;;
27113;SDS011;14648;49.730;8.614;2022-07-03T08:37:47;1.53;;;1.43;;
27113;SDS011;14648;49.730;8.614;2022-07-03T08:40:14;1.97;;;1.70;;
27113;SDS011;14648;49.730;8.614;2022-07-03T08:42:42;1.80;;;1.70;;
27113;SDS011;14648;49.730;8.614;2022-07-03T08:45:15;3.87;;;1.53;;
27113;SDS011;14648;49.730;8.614;2022-07-03T08:47:46;1.83;;;1.73;;
27113;SDS011;14648;49.730;8.614;2022-07-03T08:50:15;1.70;;;1.60;;
27113;SDS011;14648;49.730;8.614;2022-07-03T08:52:43;2.03;;;1.33;;
27113;SDS011;14648;49.730;8.614;2022-07-03T08:55:09;5.13;;;1.77;;
27113;SDS011;14648;49.730;8.614;2022-07-03T08:57:37;3.13;;;2.10;;
27113;SDS011;14648;49.730;8.614;2022-07-03T09:00:06;1.60;;;1.50;;
27113;SDS011;14648;49.730;8.614;2022-07-03T09:02:36;1.37;;;1.27;;
27113;SDS011;14648;49.730;8.614;2022-07-03T09:05:08;1.40;;;1.30;;
27113;SDS011;14648;49.730;8.614;2022-07-03T09:07:36;1.50;;;1.40;;
27113;SDS011;14648;49.730;8.614;2022-07-03T09:10:06;1.17;;;1.17;;
27113;SDS011;14648;49.730;8.614;2022-07-03T09:12:42;2.50;;;1.40;;
27113;SDS011;14648;49.730;8.614;2022-07-03T09:15:09;2.87;;;1.40;;
27113;SDS011;14648;49.730;8.614;2022-07-03T09:17:35;2.30;;;1.27;;
27113;SDS011;14648;49.730;8.614;2022-07-03T09:20:03;4.20;;;1.40;;
27113;SDS011;14648;49.730;8.614;2022-07-03T09:22:32;1.30;;;1.20;;
27113;SDS011;14648;49.730;8.614;2022-07-03T09:27:33;1.55;;;1.45;;
27113;SDS011;14648;49.730;8.614;2022-07-03T09:30:08;1.35;;;1.25;;
27113;SDS011;14648;49.730;8.614;2022-07-03T09:37:54;5.20;;;1.00;;
27113;SDS011;14648;49.730;8.614;2022-07-03T09:40:24;1.63;;;1.05;;
27113;SDS011;14648;49.730;8.614;2022-07-03T09:42:59;1.50;;;1.40;;
27113;SDS011;14648;49.730;8.614;2022-07-03T09:45:47;1.50;;;1.20;;
27113;SDS011;14648;49.730;8.614;2022-07-03T09:48:25;2.25;;;1.27;;
27113;SDS011;14648;49.730;8.614;2022-07-03T09:51:12;1.63;;;0.73;;
27113;SDS011;14648;49.730;8.614;2022-07-03T09:56:22;1.27;;;1.10;;
27113;SDS011;14648;49.730;8.614;2022-07-03T09:59:12;0.80;;;0.80;;
27113;SDS011;14648;49.730;8.614;2022-07-03T10:01:41;1.05;;;0.90;;
27113;SDS011;14648;49.730;8.614;2022-07-03T10:04:11;1.50;;;1.00;;
27113;SDS011;14648;49.730;8.614;2022-07-03T10:06:58;1.20;;;1.10;;
27113;SDS011;14648;49.730;8.614;2022-07-03T10:09:26;1.27;;;1.27;;
27113;SDS011;14648;49.730;8.614;2022-07-03T10:11:58;2.15;;;1.05;;
27113;SDS011;14648;49.730;8.614;2022-07-03T10:14:27;1.98;;;1.23;;
27113;SDS011;14648;49.730;8.614;2022-07-03T10:16:56;1.02;;;1.02;;
27113;SDS011;14648;49.730;8.614;2022-07-03T10:19:25;1.33;;;1.20;;
27113;SDS011;14648;49.730;8.614;2022-07-03T10:21:57;2.35;;;0.90;;
27113;SDS011;14648;49.730;8.614;2022-07-03T10:24:28;1.13;;;0.70;;
27113;SDS011;14648;49.730;8.614;2022-07-03T10:26:56;2.13;;;0.73;;
27113;SDS011;14648;49.730;8.614;2022-07-03T10:29:25;1.10;;;0.98;;
27113;SDS011;14648;49.730;8.614;2022-07-03T10:31:52;1.73;;;1.10;;
27113;SDS011;14648;49.730;8.614;2022-07-03T10:34:22;0.82;;;0.82;;
27113;SDS011;14648;49.730;8.614;2022-07-03T10:36:56;3.38;;;1.30;;
27113;SDS011;14648;49.730;8.614;2022-07-03T10:42:50;5.82;;;1.00;;
27113;SDS011;14648;49.730;8.614;2022-07-03T10:48:50;1.63;;;1.00;;
27113;SDS011;14648;49.730;8.614;2022-07-03T10:54:30;2.03;;;1.23;;
27113;SDS011;14648;49.730;8.614;2022-07-03T10:57:04;2.22;;;1.30;;
27113;SDS011;14648;49.730;8.614;2022-07-03T10:59:55;3.80;;;2.35;;
27113;SDS011;14648;49.730;8.614;2022-07-03T11:02:21;3.47;;;2.55;;
27113;SDS011;14648;49.730;8.614;2022-07-03T11:05:14;1.02;;;0.93;;
27113;SDS011;14648;49.730;8.614;2022-07-03T11:20:34;0.90;;;0.70;;
27113;SDS011;14648;49.730;8.614;2022-07-03T11:25:54;3.03;;;0.70;;
27113;SDS011;14648;49.730;8.614;2022-07-03T11:33:44;0.70;;;0.70;;
27113;SDS011;14648;49.730;8.614;2022-07-03T11:38:50;3.13;;;0.80;;
27113;SDS011;14648;49.730;8.614;2022-07-03T11:41:40;0.85;;;0.85;;
27113;SDS011;14648;49.730;8.614;2022-07-03T11:44:10;1.17;;;0.90;;
27113;SDS011;14648;49.730;8.614;2022-07-03T11:46:41;1.00;;;0.80;;
27113;SDS011;14648;49.730;8.614;2022-07-03T11:49:15;1.00;;;0.90;;
27113;SDS011;14648;49.730;8.614;2022-07-03T11:51:42;1.25;;;0.80;;
27113;SDS011;14648;49.730;8.614;2022-07-03T11:57:18;2.97;;;0.80;;
27113;SDS011;14648;49.730;8.614;2022-07-03T11:59:43;0.90;;;0.70;;
27113;SDS011;14648;49.730;8.614;2022-07-03T12:02:09;0.85;;;0.60;;
27113;SDS011;14648;49.730;8.614;2022-07-03T12:04:35;0.90;;;0.80;;
27113;SDS011;14648;49.730;8.614;2022-07-03T12:07:01;0.80;;;0.70;;
27113;SDS011;14648;49.730;8.614;2022-07-03T12:09:31;1.52;;;0.80;;
27113;SDS011;14648;49.730;8.614;2022-07-03T12:12:06;1.00;;;0.90;;
27113;SDS011;14648;49.730;8.614;2022-07-03T12:14:48;1.42;;;1.33;;
27113;SDS011;14648;49.730;8.614;2022-07-03T12:17:22;5.00;;;0.80;;
27113;SDS011;14648;49.730;8.614;2022-07-03T12:19:51;1.08;;;0.60;;
27113;SDS011;14648;49.730;8.614;2022-07-03T12:22:31;4.07;;;0.88;;
27113;SDS011;14648;49.730;8.614;2022-07-03T12:25:05;2.25;;;0.80;;
27113;SDS011;14648;49.730;8.614;2022-07-03T12:27:40;4.57;;;0.77;;
27113;SDS011;14648;49.730;8.614;2022-07-03T12:30:08;1.52;;;0.70;;
27113;SDS011;14648;49.730;8.614;2022-07-03T12:32:42;1.52;;;0.70;;
27113;SDS011;14648;49.730;8.614;2022-07-03T12:35:11;2.15;;;0.70;;
27113;SDS011;14648;49.730;8.614;2022-07-03T12:37:40;1.20;;;0.70;;
27113;SDS011;14648;49.730;8.614;2022-07-03T12:40:10;1.05;;;0.70;;
27113;SDS011;14648;49.730;8.614;2022-07-03T12:42:51;1.08;;;0.80;;
27113;SDS011;14648;49.730;8.614;2022-07-03T12:45:24;0.88;;;0.88;;
27113;SDS011;14648;49.730;8.614;2022-07-03T12:47:59;0.75;;;0.75;;
27113;SDS011;14648;49.730;8.614;2022-07-03T12:50:48;0.60;;;0.60;;
27113;SDS011;14648;49.730;8.614;2022-07-03T12:53:27;2.45;;;0.70;;
27113;SDS011;14648;49.730;8.614;2022-07-03T12:55:59;18.73;;;1.63;;
27113;SDS011;14648;49.730;8.614;2022-07-03T12:58:36;4.20;;;0.70;;
27113;SDS011;14648;49.730;8.614;2022-07-03T13:01:43;0.60;;;0.50;;
27113;SDS011;14648;49.730;8.614;2022-07-03T13:07:06;1.77;;;0.63;;
27113;SDS011;14648;49.730;8.614;2022-07-03T13:09:33;2.17;;;0.70;;
27113;SDS011;14648;49.730;8.614;2022-07-03T13:12:00;1.30;;;0.70;;
27113;SDS011;14648;49.730;8.614;2022-07-03T13:14:29;1.77;;;0.70;;
27113;SDS011;14648;49.730;8.614;2022-07-03T13:16:55;0.75;;;0.60;;
27113;SDS011;14648;49.730;8.614;2022-07-03T13:19:23;0.80;;;0.73;;
27113;SDS011;14648;49.730;8.614;2022-07-03T13:21:52;0.85;;;0.55;;
27113;SDS011;14648;49.730;8.614;2022-07-03T13:24:21;1.80;;;0.60;;
27113;SDS011;14648;49.730;8.614;2022-07-03T13:26:48;0.60;;;0.60;;
27113;SDS011;14648;49.730;8.614;2022-07-03T13:29:15;1.35;;;0.60;;
27113;SDS011;14648;49.730;8.614;2022-07-03T13:31:42;0.80;;;0.60;;
27113;SDS011;14648;49.730;8.614;2022-07-03T13:34:07;0.70;;;0.60;;
27113;SDS011;14648;49.730;8.614;2022-07-03T13:36:34;0.98;;;0.70;;
27113;SDS011;14648;49.730;8.614;2022-07-03T13:38:59;0.60;;;0.60;;
27113;SDS011;14648;49.730;8.614;2022-07-03T13:41:26;0.70;;;0.60;;
27113;SDS011;14648;49.730;8.614;2022-07-03T13:43:52;2.28;;;0.73;;
27113;SDS011;14648;49.730;8.614;2022-07-03T13:46:19;1.15;;;0.70;;
27113;SDS011;14648;49.730;8.614;2022-07-03T13:48:49;0.70;;;0.57;;
27113;SDS011;14648;49.730;8.614;2022-07-03T13:51:16;0.65;;;0.65;;
27113;SDS011;14648;49.730;8.614;2022-07-03T13:53:42;1.05;;;0.70;;
27113;SDS011;14648;49.730;8.614;2022-07-03T13:56:09;1.27;;;0.60;;
27113;SDS011;14648;49.730;8.614;2022-07-03T13:58:36;1.38;;;0.55;;
27113;SDS011;14648;49.730;8.614;2022-07-03T14:01:01;5.38;;;0.70;;
27113;SDS011;14648;49.730;8.614;2022-07-03T14:03:27;0.75;;;0.73;;
27113;SDS011;14648;49.730;8.614;2022-07-03T14:05:53;0.70;;;0.70;;
27113;SDS011;14648;49.730;8.614;2022-07-03T14:08:19;2.15;;;1.13;;
27113;SDS011;14648;49.730;8.614;2022-07-03T14:10:46;1.20;;;1.10;;
27113;SDS011;14648;49.730;8.614;2022-07-03T14:13:12;0.70;;;0.63;;
27113;SDS011;14648;49.730;8.614;2022-07-03T14:15:39;0.80;;;0.65;;
27113;SDS011;14648;49.730;8.614;2022-07-03T14:18:05;0.60;;;0.60;;
27113;SDS011;14648;49.730;8.614;2022-07-03T14:20:30;1.17;;;0.85;;
27113;SDS011;14648;49.730;8.614;2022-07-03T14:22:56;0.70;;;0.70;;
27113;SDS011;14648;49.730;8.614;2022-07-03T14:25:22;0.60;;;0.50;;
27113;SDS011;14648;49.730;8.614;2022-07-03T14:27:49;0.77;;;0.70;;
27113;SDS011;14648;49.730;8.614;2022-07-03T14:30:33;2.45;;;0.60;;
27113;SDS011;14648;49.730;8.614;2022-07-03T14:33:17;2.22;;;0.60;;
27113;SDS011;14648;49.730;8.614;2022-07-03T14:35:43;1.95;;;0.70;;
27113;SDS011;14648;49.730;8.614;2022-07-03T14:38:08;1.00;;;0.70;;
27113;SDS011;14648;49.730;8.614;2022-07-03T14:40:34;4.00;;;0.70;;
27113;SDS011;14648;49.730;8.614;2022-07-03T14:43:00;0.65;;;0.65;;
27113;SDS011;14648;49.730;8.614;2022-07-03T14:45:25;3.17;;;0.60;;
27113;SDS011;14648;49.730;8.614;2022-07-03T14:47:51;0.60;;;0.60;;
27113;SDS011;14648;49.730;8.614;2022-07-03T14:50:17;1.50;;;0.70;;
27113;SDS011;14648;49.730;8.614;2022-07-03T14:52:43;0.70;;;0.70;;
27113;SDS011;14648;49.730;8.614;2022-07-03T14:55:09;0.70;;;0.70;;
27113;SDS011;14648;49.730;8.614;2022-07-03T14:57:41;0.70;;;0.60;;
27113;SDS011;14648;49.730;8.614;2022-07-03T15:00:14;1.20;;;0.63;;
27113;SDS011;14648;49.730;8.614;2022-07-03T15:02:48;1.90;;;0.60;;
27113;SDS011;14648;49.730;8.614;2022-07-03T15:05:30;1.40;;;0.70;;
27113;SDS011;14648;49.730;8.614;2022-07-03T15:08:09;1.25;;;1.15;;
27113;SDS011;14648;49.730;8.614;2022-07-03T15:10:40;2.95;;;0.70;;
27113;SDS011;14648;49.730;8.614;2022-07-03T15:13:06;0.70;;;0.70;;
27113;SDS011;14648;49.730;8.614;2022-07-03T15:15:32;0.85;;;0.52;;
27113;SDS011;14648;49.730;8.614;2022-07-03T15:18:00;2.25;;;0.63;;
27113;SDS011;14648;49.730;8.614;2022-07-03T15:20:35;0.50;;;0.50;;
27113;SDS011;14648;49.730;8.614;2022-07-03T15:23:04;2.05;;;0.68;;
27113;SDS011;14648;49.730;8.614;2022-07-03T15:25:32;2.42;;;0.60;;
27113;SDS011;14648;49.730;8.614;2022-07-03T15:28:01;0.60;;;0.60;;
27113;SDS011;14648;49.730;8.614;2022-07-03T15:30:29;1.23;;;0.63;;
27113;SDS011;14648;49.730;8.614;2022-07-03T15:32:55;0.77;;;0.77;;
27113;SDS011;14648;49.730;8.614;2022-07-03T15:35:23;0.80;;;0.75;;
27113;SDS011;14648;49.730;8.614;2022-07-03T15:40:38;0.77;;;0.70;;
27113;SDS011;14648;49.730;8.614;2022-07-03T15:57:15;0.85;;;0.75;;
27113;SDS011;14648;49.730;8.614;2022-07-03T15:59:48;1.45;;;0.70;;
27113;SDS011;14648;49.730;8.614;2022-07-03T16:05:11;3.85;;;0.70;;
27113;SDS011;14648;49.730;8.614;2022-07-03T16:07:43;0.60;;;0.60;;
27113;SDS011;14648;49.730;8.614;2022-07-03T16:10:10;0.82;;;0.82;;
27113;SDS011;14648;49.730;8.614;2022-07-03T16:12:37;1.73;;;0.73;;
27113;SDS011;14648;49.730;8.614;2022-07-03T16:15:07;4.93;;;0.85;;
27113;SDS011;14648;49.730;8.614;2022-07-03T16:17:34;1.15;;;0.75;;
27113;SDS011;14648;49.730;8.614;2022-07-03T16:20:04;4.68;;;0.70;;
27113;SDS011;14648;49.730;8.614;2022-07-03T16:22:33;2.00;;;0.70;;
27113;SDS011;14648;49.730;8.614;2022-07-03T16:25:02;0.60;;;0.60;;
27113;SDS011;14648;49.730;8.614;2022-07-03T16:27:30;2.45;;;0.93;;
27113;SDS011;14648;49.730;8.614;2022-07-03T16:29:56;3.45;;;0.70;;
27113;SDS011;14648;49.730;8.614;2022-07-03T16:32:26;2.10;;;0.90;;
27113;SDS011;14648;49.730;8.614;2022-07-03T16:35:04;1.30;;;1.05;;
27113;SDS011;14648;49.730;8.614;2022-07-03T16:38:03;2.58;;;0.80;;
27113;SDS011;14648;49.730;8.614;2022-07-03T16:40:31;1.00;;;0.77;;
27113;SDS011;14648;49.730;8.614;2022-07-03T16:42:58;5.28;;;0.70;;